createdAt,value
2019-05-13T00:01:09.696Z,42.75
2019-05-13T00:05:15.564Z,39.76
2019-05-13T00:09:21.270Z,41.77
2019-05-13T00:13:26.945Z,43.65
2019-05-13T00:17:33.905Z,45.54
2019-05-13T00:21:39.661Z,53.73
2019-05-13T00:25:45.380Z,51.58
2019-05-13T00:29:53.374Z,46.08
2019-05-13T00:33:58.614Z,50.42
2019-05-13T00:38:04.315Z,53.34
2019-05-13T00:42:09.989Z,45.25
2019-05-13T00:46:15.678Z,51.49
2019-05-13T00:50:21.407Z,39.20
2019-05-13T00:54:27.228Z,44.67
2019-05-13T00:58:33.503Z,47.34
2019-05-13T01:02:39.390Z,50.89
2019-05-13T01:06:45.154Z,48.99
2019-05-13T01:10:50.893Z,57.97
2019-05-13T01:14:56.702Z,54.88
2019-05-13T01:19:04.182Z,49.54
2019-05-13T01:23:10.047Z,46.27
2019-05-13T01:27:15.685Z,44.78
2019-05-13T01:31:23.303Z,48.93
2019-05-13T01:35:29.051Z,54.49
2019-05-13T01:39:35.146Z,45.85
2019-05-13T01:43:40.893Z,46.65
2019-05-13T01:47:46.569Z,48.10
2019-05-13T01:51:54.189Z,50.33
2019-05-13T01:55:59.730Z,51.11
2019-05-13T02:00:08.831Z,50.61
2019-05-13T02:04:14.486Z,45.72
2019-05-13T02:08:20.172Z,47.88
2019-05-13T02:12:25.854Z,47.71
2019-05-13T02:16:33.867Z,47.99
2019-05-13T02:20:38.953Z,42.95
2019-05-13T02:24:44.878Z,47.65
2019-05-13T02:28:50.587Z,45.34
2019-05-13T02:32:56.326Z,46.96
2019-05-13T02:37:03.204Z,47.81
2019-05-13T02:41:09.457Z,48.59
2019-05-13T02:45:15.371Z,47.80
2019-05-13T02:49:23.060Z,45.45
2019-05-13T02:53:28.493Z,43.14
2019-05-13T02:57:34.259Z,52.14
2019-05-13T03:01:43.015Z,46.16
2019-05-13T03:05:47.518Z,46.12
2019-05-13T03:09:53.222Z,45.49
2019-05-13T03:13:58.928Z,48.43
2019-05-13T03:18:05.588Z,56.74
2019-05-13T03:22:13.408Z,46.27
2019-05-13T03:26:18.649Z,49.62
2019-05-13T03:30:26.149Z,47.69
2019-05-13T03:34:35.823Z,44.16
2019-05-13T03:38:59.761Z,48.67
2019-05-13T03:42:53.478Z,50.29
2019-05-13T03:47:03.670Z,51.87
2019-05-13T03:51:12.889Z,51.74
2019-05-13T03:55:17.654Z,52.81
2019-05-13T03:59:23.404Z,49.91
2019-05-13T04:03:29.323Z,50.72
2019-05-13T04:07:35.059Z,48.60
2019-05-13T04:11:42.349Z,52.37
2019-05-13T04:15:49.309Z,51.27
2019-05-13T04:19:55.166Z,51.00
2019-05-13T04:24:03.907Z,51.01
2019-05-13T04:28:08.476Z,47.30
2019-05-13T04:32:14.328Z,49.21
2019-05-13T04:36:23.410Z,52.48
2019-05-13T04:40:28.965Z,55.23
2019-05-13T04:44:34.968Z,47.16
2019-05-13T04:48:44.300Z,52.06
2019-05-13T04:52:48.174Z,47.56
2019-05-13T04:56:53.993Z,47.46
2019-05-13T05:01:19.535Z,47.44
2019-05-13T05:05:44.955Z,46.27
2019-05-13T05:10:37.780Z,49.53
2019-05-13T05:15:04.218Z,50.84
2019-05-13T05:19:32.087Z,47.62
2019-05-13T05:24:05.217Z,53.33
2019-05-13T05:28:21.827Z,51.05
2019-05-13T05:32:54.763Z,48.99
2019-05-13T05:37:31.267Z,54.62
2019-05-13T05:41:38.663Z,48.63
2019-05-13T05:45:44.546Z,47.10
2019-05-13T05:49:53.891Z,46.11
2019-05-13T05:54:03.615Z,46.73
2019-05-13T05:58:12.513Z,45.75
2019-05-13T06:02:22.893Z,49.74
2019-05-13T06:06:32.730Z,44.20
2019-05-13T06:10:49.074Z,43.61
2019-05-13T06:14:45.747Z,44.02
2019-05-13T06:18:52.329Z,44.65
2019-05-13T06:22:58.143Z,45.10
2019-05-13T06:27:03.968Z,46.91
2019-05-13T06:31:12.258Z,45.85
2019-05-13T06:35:17.089Z,43.89
2019-05-13T06:39:22.840Z,40.25
2019-05-13T06:43:31.468Z,43.44
2019-05-13T06:47:36.926Z,41.78
2019-05-13T06:51:42.600Z,43.48
2019-05-13T06:55:48.508Z,46.07
2019-05-13T06:59:54.693Z,43.44
2019-05-13T07:04:02.360Z,41.87
2019-05-13T07:08:08.215Z,43.00
2019-05-13T07:12:13.931Z,41.23
2019-05-13T07:16:19.608Z,37.22
2019-05-13T07:20:25.347Z,41.25
2019-05-13T07:24:32.233Z,39.71
2019-05-13T07:28:38.326Z,35.49
2019-05-13T07:32:44.038Z,40.71
2019-05-13T07:36:51.305Z,38.64
2019-05-13T07:41:04.480Z,42.96
2019-05-13T07:45:12.344Z,43.16
2019-05-13T07:49:18.161Z,35.14
2019-05-13T07:53:23.963Z,37.35
2019-05-13T07:57:31.927Z,39.95
2019-05-13T08:01:37.021Z,35.30
2019-05-13T08:05:42.797Z,34.64
2019-05-13T08:09:51.791Z,35.90
2019-05-13T08:13:56.833Z,31.62
2019-05-13T08:18:02.525Z,32.89
2019-05-13T08:22:08.287Z,35.07
2019-05-13T08:26:13.986Z,33.31
2019-05-13T08:30:22.546Z,33.64
2019-05-13T08:34:27.204Z,32.79
2019-05-13T08:38:32.946Z,33.24
2019-05-13T08:42:41.462Z,32.00
2019-05-13T08:46:46.681Z,29.13
2019-05-13T08:50:52.909Z,29.84
2019-05-13T08:55:01.327Z,28.54
2019-05-13T08:59:07.507Z,29.80
2019-05-13T09:03:13.259Z,30.65
2019-05-13T09:07:21.843Z,30.13
2019-05-13T09:11:26.488Z,31.01
2019-05-13T09:15:32.275Z,27.17
2019-05-13T09:19:38.257Z,30.37
2019-05-13T09:23:43.953Z,29.44
2019-05-13T09:27:51.345Z,30.50
2019-05-13T09:31:57.115Z,28.68
2019-05-13T09:36:02.883Z,23.96
2019-05-13T09:40:08.767Z,30.06
2019-05-13T09:44:14.462Z,24.32
2019-05-13T09:48:22.428Z,27.37
2019-05-13T09:52:27.639Z,21.29
2019-05-13T09:56:33.418Z,22.23
2019-05-13T10:00:41.869Z,28.11
2019-05-13T10:04:46.484Z,21.97
2019-05-13T10:08:52.800Z,25.26
2019-05-13T10:13:09.332Z,21.35
2019-05-13T10:17:07.097Z,26.91
2019-05-13T10:21:12.857Z,25.60
2019-05-13T10:25:22.388Z,28.48
2019-05-13T10:29:27.868Z,22.61
2019-05-13T10:33:33.877Z,23.89
2019-05-13T10:37:41.824Z,20.99
2019-05-13T10:41:47.107Z,24.95
2019-05-13T10:45:52.811Z,19.47
2019-05-13T10:49:58.771Z,22.61
2019-05-13T10:54:05.010Z,22.33
2019-05-13T10:58:12.274Z,24.72
2019-05-13T11:02:18.154Z,18.29
2019-05-13T11:06:23.969Z,28.63
2019-05-13T11:10:33.211Z,24.26
2019-05-13T11:14:38.879Z,23.96
2019-05-13T11:18:46.279Z,22.73
2019-05-13T11:22:52.257Z,18.95
2019-05-13T11:26:57.928Z,28.16
2019-05-13T11:31:03.805Z,20.33
2019-05-13T11:35:12.736Z,18.25
2019-05-13T11:39:17.202Z,21.24
2019-05-13T11:43:27.904Z,21.50
2019-05-13T11:47:32.212Z,21.45
2019-05-13T11:51:38.044Z,25.67
2019-05-13T11:55:43.981Z,23.94
2019-05-13T11:59:52.446Z,24.47
2019-05-13T12:03:57.117Z,27.78
2019-05-13T12:08:02.828Z,23.24
2019-05-13T12:12:08.534Z,20.30
2019-05-13T12:16:14.243Z,23.30
2019-05-13T12:20:19.950Z,21.65
2019-05-13T12:24:26.783Z,28.53
2019-05-13T12:28:32.509Z,22.10
2019-05-13T12:32:38.183Z,20.21
2019-05-13T12:36:43.926Z,17.77
2019-05-13T12:40:52.530Z,19.51
2019-05-13T12:45:08.971Z,18.16
2019-05-13T12:49:04.655Z,17.95
2019-05-13T12:53:12.817Z,19.43
2019-05-13T12:57:17.801Z,24.13
2019-05-13T13:01:24.146Z,23.67
2019-05-13T13:05:34.332Z,18.41
2019-05-13T13:09:37.211Z,16.70
2019-05-13T13:13:58.170Z,26.72
2019-05-13T13:17:53.961Z,23.62
2019-05-13T13:22:03.244Z,16.68
2019-05-13T13:26:13.978Z,17.86
2019-05-13T13:30:14.288Z,22.19
2019-05-13T13:34:25.358Z,19.33
2019-05-13T13:38:27.371Z,24.42
2019-05-13T13:42:33.260Z,24.02
2019-05-13T13:46:44.299Z,19.15
2019-05-13T13:50:46.308Z,19.24
2019-05-13T13:55:02.128Z,23.19
2019-05-13T13:59:00.139Z,19.44
2019-05-13T14:03:07.115Z,19.11
2019-05-13T14:07:26.152Z,19.04
2019-05-13T14:11:23.206Z,18.81
2019-05-13T14:15:31.057Z,18.89
2019-05-13T14:19:35.925Z,20.36
2019-05-13T14:23:42.538Z,25.22
2019-05-13T14:27:48.397Z,26.32
2019-05-13T14:31:54.068Z,20.93
2019-05-13T14:36:01.558Z,27.88
2019-05-13T14:40:11.941Z,22.32
2019-05-13T14:44:16.490Z,21.32
2019-05-13T14:48:22.440Z,21.30
2019-05-13T14:52:28.172Z,20.45
2019-05-13T14:56:33.892Z,21.15
2019-05-13T15:00:42.185Z,25.47
2019-05-13T15:04:47.247Z,25.33
2019-05-13T15:08:53.118Z,26.01
2019-05-13T15:12:58.828Z,27.04
2019-05-13T15:17:07.562Z,23.54
2019-05-13T15:21:12.314Z,22.29
2019-05-13T15:25:18.188Z,19.71
2019-05-13T15:29:23.874Z,23.05
2019-05-13T15:33:32.272Z,28.87
2019-05-13T15:37:37.049Z,26.40
2019-05-13T15:41:42.739Z,22.82
2019-05-13T15:45:48.531Z,32.11
2019-05-13T15:49:54.215Z,22.99
2019-05-13T15:54:02.427Z,25.37
2019-05-13T15:58:07.466Z,25.11
2019-05-13T16:02:13.186Z,22.81
2019-05-13T16:06:20.577Z,32.55
2019-05-13T16:10:27.255Z,27.99
2019-05-13T16:14:32.929Z,28.96
2019-05-13T16:18:38.677Z,31.77
2019-05-13T16:22:44.386Z,30.47
2019-05-13T16:26:52.121Z,30.88
2019-05-13T16:30:57.723Z,27.66
2019-05-13T16:35:03.477Z,32.61
2019-05-13T16:39:09.171Z,24.97
2019-05-13T16:43:14.849Z,29.17
2019-05-13T16:47:21.239Z,26.61
2019-05-13T16:51:27.412Z,28.09
2019-05-13T16:55:33.120Z,30.12
2019-05-13T16:59:41.089Z,27.50
2019-05-13T17:03:46.923Z,26.52
2019-05-13T17:07:52.640Z,30.73
2019-05-13T17:12:01.378Z,29.72
2019-05-13T17:16:07.272Z,30.48
2019-05-13T17:20:13.464Z,29.57
2019-05-13T17:24:19.167Z,29.73
2019-05-13T17:28:24.858Z,28.72
2019-05-13T17:32:30.560Z,30.48
2019-05-13T17:36:36.249Z,31.79
2019-05-13T17:40:42.136Z,30.53
2019-05-13T17:44:47.830Z,31.12
2019-05-13T17:48:53.496Z,29.57
2019-05-13T17:52:59.204Z,27.83
2019-05-13T17:57:04.906Z,27.22
2019-05-13T18:01:12.098Z,29.70
2019-05-13T18:09:27.806Z,28.25
2019-05-13T18:13:33.655Z,27.89
2019-05-13T18:17:41.600Z,31.89
2019-05-13T18:21:46.912Z,31.86
2019-05-13T18:25:52.588Z,29.85
2019-05-13T18:29:59.263Z,26.87
2019-05-13T18:34:05.294Z,31.63
2019-05-13T18:38:11.964Z,30.26
2019-05-13T18:42:17.744Z,27.23
2019-05-13T18:46:24.077Z,27.77
2019-05-13T18:50:31.341Z,26.03
2019-05-13T18:54:37.301Z,29.19
2019-05-13T18:58:42.956Z,26.57
2019-05-13T19:02:48.656Z,25.79
2019-05-13T19:06:54.445Z,26.45
2019-05-13T19:11:01.176Z,26.31
2019-05-13T19:15:08.422Z,30.15
2019-05-13T19:19:16.987Z,28.40
2019-05-13T19:23:22.846Z,28.28
2019-05-13T19:27:28.575Z,28.05
2019-05-13T19:31:35.266Z,29.99
2019-05-13T19:35:42.611Z,28.24
2019-05-13T19:39:48.414Z,30.54
2019-05-13T19:43:54.159Z,30.13
2019-05-13T19:48:01.232Z,31.84
2019-05-13T19:52:07.229Z,30.69
2019-05-13T19:56:12.921Z,29.93
2019-05-13T20:00:21.203Z,30.15
2019-05-13T20:04:26.887Z,31.70
2019-05-13T20:08:32.611Z,35.43
2019-05-13T20:12:38.418Z,29.67
2019-05-13T20:16:44.288Z,29.47
2019-05-13T20:20:51.891Z,29.85
2019-05-13T20:24:57.661Z,31.25
2019-05-13T20:29:04.035Z,31.26
2019-05-13T20:33:11.776Z,34.97
2019-05-13T20:37:17.101Z,31.35
2019-05-13T20:41:22.800Z,29.69
2019-05-13T20:45:28.545Z,29.76
2019-05-13T20:49:35.165Z,32.18
2019-05-13T20:53:41.316Z,30.70
2019-05-13T20:57:47.018Z,33.83
2019-05-13T21:01:52.802Z,30.72
2019-05-13T21:05:58.455Z,33.89
2019-05-13T21:10:04.426Z,34.01
2019-05-13T21:14:10.113Z,37.85
2019-05-13T21:18:15.787Z,32.43
2019-05-13T21:22:21.558Z,33.06
2019-05-13T21:26:27.242Z,36.68
2019-05-13T21:30:32.942Z,30.81
2019-05-13T21:34:38.786Z,31.73
2019-05-13T21:38:44.502Z,34.19
2019-05-13T21:42:52.439Z,34.73
2019-05-13T21:46:57.601Z,34.00
2019-05-13T21:51:03.322Z,35.51
2019-05-13T21:55:11.211Z,34.83
2019-05-13T21:59:16.662Z,37.42
2019-05-13T22:03:22.347Z,34.77
2019-05-13T22:07:28.042Z,35.45
2019-05-13T22:11:35.210Z,37.94
2019-05-13T22:15:41.655Z,33.29
2019-05-13T22:19:47.414Z,36.70
2019-05-13T22:23:53.157Z,35.52
2019-05-13T22:28:01.087Z,35.61
2019-05-13T22:32:06.256Z,34.16
2019-05-13T22:36:11.991Z,37.91
2019-05-13T22:40:18.322Z,35.79
2019-05-13T22:44:24.019Z,38.18
2019-05-13T22:48:31.700Z,39.05
2019-05-13T22:52:37.250Z,33.42
2019-05-13T22:56:42.916Z,35.53
2019-05-13T23:00:48.621Z,35.19
2019-05-13T23:04:55.256Z,37.70
2019-05-13T23:09:01.747Z,38.43
2019-05-13T23:13:08.401Z,34.31
2019-05-13T23:17:14.084Z,33.86
2019-05-13T23:21:19.752Z,34.27
2019-05-13T23:25:25.454Z,34.53
2019-05-13T23:29:31.885Z,36.41
2019-05-13T23:33:37.712Z,36.23
2019-05-13T23:37:43.955Z,40.35
2019-05-13T23:41:51.973Z,38.55
2019-05-13T23:45:57.070Z,38.76
2019-05-13T23:50:02.835Z,39.76
2019-05-13T23:54:08.517Z,37.51
2019-05-13T23:58:14.246Z,38.68
